sensor_id;sensor_type;location;lat;lon;timestamp;pressure;altitude;pressure_sealevel;temperature;humidity
68871;BME280;55906;52.278;6.808;2022-12-29T00:01:51;99971.22;;;11.61;85.44
68871;BME280;55906;52.278;6.808;2022-12-29T00:04:18;99974.75;;;11.61;85.24
68871;BME280;55906;52.278;6.808;2022-12-29T00:06:46;99952.81;;;11.62;85.43
68871;BME280;55906;52.278;6.808;2022-12-29T00:09:15;99952.03;;;11.74;84.52
68871;BME280;55906;52.278;6.808;2022-12-29T00:11:42;99944.09;;;11.71;85.06
68871;BME280;55906;52.278;6.808;2022-12-29T00:14:10;99945.06;;;11.77;84.25
68871;BME280;55906;52.278;6.808;2022-12-29T00:16:55;99948.59;;;11.81;83.78
68871;BME280;55906;52.278;6.808;2022-12-29T00:19:21;99935.44;;;11.82;83.92
68871;BME280;55906;52.278;6.808;2022-12-29T00:22:08;99940.69;;;11.84;84.66
68871;BME280;55906;52.278;6.808;2022-12-29T00:24:53;99927.53;;;11.82;84.35
68871;BME280;55906;52.278;6.808;2022-12-29T00:27:37;99952.16;;;11.89;84.71
68871;BME280;55906;52.278;6.808;2022-12-29T00:30:22;99928.41;;;11.86;84.38
68871;BME280;55906;52.278;6.808;2022-12-29T00:33:10;99929.28;;;11.85;83.89
68871;BME280;55906;52.278;6.808;2022-12-29T00:35:56;99919.63;;;11.85;84.24
68871;BME280;55906;52.278;6.808;2022-12-29T00:38:25;99919.66;;;11.92;83.94
68871;BME280;55906;52.278;6.808;2022-12-29T00:41:10;99905.59;;;11.87;84.22
68871;BME280;55906;52.278;6.808;2022-12-29T00:43:54;99916.94;;;11.78;84.52
68871;BME280;55906;52.278;6.808;2022-12-29T00:46:32;99914.31;;;11.78;84.40
68871;BME280;55906;52.278;6.808;2022-12-29T00:48:59;99916.97;;;11.82;84.50
68871;BME280;55906;52.278;6.808;2022-12-29T00:51:44;99902.91;;;11.79;84.54
68871;BME280;55906;52.278;6.808;2022-12-29T00:54:12;99904.69;;;11.83;84.32
68871;BME280;55906;52.278;6.808;2022-12-29T00:56:39;99902.91;;;11.82;84.64
68871;BME280;55906;52.278;6.808;2022-12-29T00:59:07;99898.53;;;11.82;84.49
68871;BME280;55906;52.278;6.808;2022-12-29T01:01:34;99892.38;;;11.82;84.51
68871;BME280;55906;52.278;6.808;2022-12-29T01:04:02;99894.13;;;11.81;84.71
68871;BME280;55906;52.278;6.808;2022-12-29T01:06:29;99888.00;;;11.85;84.11
68871;BME280;55906;52.278;6.808;2022-12-29T01:08:56;99879.22;;;11.83;84.20
68871;BME280;55906;52.278;6.808;2022-12-29T01:11:39;99881.88;;;11.88;84.28
68871;BME280;55906;52.278;6.808;2022-12-29T01:14:06;99875.72;;;11.86;84.44
68871;BME280;55906;52.278;6.808;2022-12-29T01:16:33;99868.69;;;11.85;84.77
68871;BME280;55906;52.278;6.808;2022-12-29T01:19:02;99864.28;;;11.85;84.66
68871;BME280;55906;52.278;6.808;2022-12-29T01:21:29;99854.63;;;11.84;84.88
68871;BME280;55906;52.278;6.808;2022-12-29T01:23:55;99859.91;;;11.86;84.87
68871;BME280;55906;52.278;6.808;2022-12-29T01:26:22;99869.53;;;11.82;84.22
68871;BME280;55906;52.278;6.808;2022-12-29T01:28:50;99853.75;;;11.84;83.45
68871;BME280;55906;52.278;6.808;2022-12-29T01:31:17;99859.00;;;11.82;84.17
68871;BME280;55906;52.278;6.808;2022-12-29T01:33:43;99851.97;;;11.78;83.58
68871;BME280;55906;52.278;6.808;2022-12-29T01:36:12;99840.53;;;11.79;83.49
68871;BME280;55906;52.278;6.808;2022-12-29T01:38:39;99839.69;;;11.82;83.25
68871;BME280;55906;52.278;6.808;2022-12-29T01:41:08;99837.91;;;11.78;83.79
68871;BME280;55906;52.278;6.808;2022-12-29T01:43:39;99842.25;;;11.76;84.41
68871;BME280;55906;52.278;6.808;2022-12-29T01:46:15;99853.66;;;11.73;84.46
68871;BME280;55906;52.278;6.808;2022-12-29T01:48:46;99851.03;;;11.73;84.15
68871;BME280;55906;52.278;6.808;2022-12-29T01:51:15;99847.41;;;11.59;85.59
68871;BME280;55906;52.278;6.808;2022-12-29T01:53:43;99867.56;;;11.52;86.80
68871;BME280;55906;52.278;6.808;2022-12-29T01:56:12;99835.03;;;11.44;88.20
68871;BME280;55906;52.278;6.808;2022-12-29T01:58:45;99849.88;;;11.32;89.10
68871;BME280;55906;52.278;6.808;2022-12-29T02:01:15;99841.94;;;11.26;88.92
68871;BME280;55906;52.278;6.808;2022-12-29T02:03:45;99856.84;;;11.19;88.65
68871;BME280;55906;52.278;6.808;2022-12-29T02:06:15;99858.59;;;11.21;89.31
68871;BME280;55906;52.278;6.808;2022-12-29T02:08:46;99852.44;;;11.16;89.82
68871;BME280;55906;52.278;6.808;2022-12-29T02:11:15;99840.13;;;11.14;90.91
68871;BME280;55906;52.278;6.808;2022-12-29T02:13:42;99843.63;;;11.14;91.63
68871;BME280;55906;52.278;6.808;2022-12-29T02:16:20;99825.19;;;11.10;92.54
68871;BME280;55906;52.278;6.808;2022-12-29T02:18:59;99820.81;;;11.13;93.32
68871;BME280;55906;52.278;6.808;2022-12-29T02:21:52;99810.31;;;11.18;93.20
68871;BME280;55906;52.278;6.808;2022-12-29T02:24:45;99805.94;;;11.20;93.63
68871;BME280;55906;52.278;6.808;2022-12-29T02:27:28;99803.28;;;11.17;94.55
68871;BME280;55906;52.278;6.808;2022-12-29T02:30:04;99815.59;;;11.19;94.16
68871;BME280;55906;52.278;6.808;2022-12-29T02:32:37;99822.63;;;11.23;93.42
68871;BME280;55906;52.278;6.808;2022-12-29T02:35:12;99816.56;;;11.35;93.16
68871;BME280;55906;52.278;6.808;2022-12-29T02:37:45;99819.22;;;11.38;92.37
68871;BME280;55906;52.278;6.808;2022-12-29T02:40:22;99809.56;;;11.40;91.81
68871;BME280;55906;52.278;6.808;2022-12-29T02:42:59;99812.22;;;11.45;91.90
68871;BME280;55906;52.278;6.808;2022-12-29T02:45:32;99813.94;;;11.40;91.93
68871;BME280;55906;52.278;6.808;2022-12-29T02:48:05;99802.59;;;11.48;91.76
68871;BME280;55906;52.278;6.808;2022-12-29T02:50:37;99797.31;;;11.48;91.36
68871;BME280;55906;52.278;6.808;2022-12-29T02:53:07;99812.22;;;11.45;91.55
68871;BME280;55906;52.278;6.808;2022-12-29T02:55:35;99816.59;;;11.44;91.33
68871;BME280;55906;52.278;6.808;2022-12-29T02:58:16;99835.09;;;11.52;90.28
68871;BME280;55906;52.278;6.808;2022-12-29T03:00:56;99814.00;;;11.52;90.38
68871;BME280;55906;52.278;6.808;2022-12-29T03:03:41;99809.59;;;11.49;90.15
68871;BME280;55906;52.278;6.808;2022-12-29T03:06:23;99806.09;;;11.50;90.03
68871;BME280;55906;52.278;6.808;2022-12-29T03:08:56;99814.88;;;11.48;90.60
68871;BME280;55906;52.278;6.808;2022-12-29T03:11:32;99797.31;;;11.47;90.22
68871;BME280;55906;52.278;6.808;2022-12-29T03:14:26;99785.91;;;11.49;90.44
68871;BME280;55906;52.278;6.808;2022-12-29T03:17:19;99795.53;;;11.44;90.49
68871;BME280;55906;52.278;6.808;2022-12-29T03:19:52;99792.91;;;11.44;89.65
68871;BME280;55906;52.278;6.808;2022-12-29T03:22:27;99774.50;;;11.53;89.09
68871;BME280;55906;52.278;6.808;2022-12-29T03:25:01;99779.78;;;11.50;89.23
68871;BME280;55906;52.278;6.808;2022-12-29T03:27:31;99774.53;;;11.58;87.70
68871;BME280;55906;52.278;6.808;2022-12-29T03:30:01;99787.72;;;11.63;86.65
68871;BME280;55906;52.278;6.808;2022-12-29T03:32:33;99768.41;;;11.62;86.46
68871;BME280;55906;52.278;6.808;2022-12-29T03:35:04;99760.53;;;11.70;85.85
68871;BME280;55906;52.278;6.808;2022-12-29T03:37:37;99750.03;;;11.74;85.00
68871;BME280;55906;52.278;6.808;2022-12-29T03:40:07;99750.06;;;11.79;84.39
68871;BME280;55906;52.278;6.808;2022-12-29T03:42:36;99744.81;;;11.87;83.88
68871;BME280;55906;52.278;6.808;2022-12-29T03:45:04;99748.34;;;11.89;83.25
68871;BME280;55906;52.278;6.808;2022-12-29T03:47:32;99739.56;;;11.91;82.81
68871;BME280;55906;52.278;6.808;2022-12-29T03:49:59;99748.34;;;11.93;82.19
68871;BME280;55906;52.278;6.808;2022-12-29T03:52:28;99778.22;;;11.95;82.31
68871;BME280;55906;52.278;6.808;2022-12-29T03:54:54;99765.06;;;12.00;81.24
68871;BME280;55906;52.278;6.808;2022-12-29T03:57:21;99794.94;;;12.02;80.49
68871;BME280;55906;52.278;6.808;2022-12-29T03:59:47;99758.91;;;12.05;81.02
68871;BME280;55906;52.278;6.808;2022-12-29T04:02:14;99756.28;;;12.07;80.30
68871;BME280;55906;52.278;6.808;2022-12-29T04:04:41;99773.88;;;12.11;79.89
68871;BME280;55906;52.278;6.808;2022-12-29T04:07:08;99772.13;;;12.16;80.16
68871;BME280;55906;52.278;6.808;2022-12-29T04:09:36;99784.41;;;12.11;80.74
68871;BME280;55906;52.278;6.808;2022-12-29T04:12:03;99766.84;;;12.08;80.30
68871;BME280;55906;52.278;6.808;2022-12-29T04:14:29;99767.72;;;12.13;80.05
68871;BME280;55906;52.278;6.808;2022-12-29T04:16:56;99763.31;;;12.14;80.24
68871;BME280;55906;52.278;6.808;2022-12-29T04:19:22;99768.59;;;12.12;80.08
68871;BME280;55906;52.278;6.808;2022-12-29T04:21:49;99769.47;;;12.10;80.18
68871;BME280;55906;52.278;6.808;2022-12-29T04:24:16;99767.72;;;12.13;79.99
68871;BME280;55906;52.278;6.808;2022-12-29T04:26:44;99755.41;;;12.11;79.79
68871;BME280;55906;52.278;6.808;2022-12-29T04:29:10;99755.41;;;12.15;80.17
68871;BME280;55906;52.278;6.808;2022-12-29T04:31:37;99763.34;;;12.22;79.42
68871;BME280;55906;52.278;6.808;2022-12-29T04:34:04;99759.81;;;12.16;79.31
68871;BME280;55906;52.278;6.808;2022-12-29T04:36:30;99765.97;;;12.15;79.68
68871;BME280;55906;52.278;6.808;2022-12-29T04:38:57;99770.34;;;12.15;79.77
68871;BME280;55906;52.278;6.808;2022-12-29T04:41:24;99754.53;;;12.16;79.54
68871;BME280;55906;52.278;6.808;2022-12-29T04:43:52;99772.13;;;12.14;79.65
68871;BME280;55906;52.278;6.808;2022-12-29T04:46:18;99765.97;;;12.12;79.39
68871;BME280;55906;52.278;6.808;2022-12-29T04:48:45;99769.47;;;12.14;79.24
68871;BME280;55906;52.278;6.808;2022-12-29T04:51:12;99769.47;;;12.10;79.42
68871;BME280;55906;52.278;6.808;2022-12-29T04:53:39;99767.72;;;12.12;79.38
68871;BME280;55906;52.278;6.808;2022-12-29T04:56:06;99767.72;;;12.04;79.44
68871;BME280;55906;52.278;6.808;2022-12-29T04:58:34;99762.44;;;12.01;80.00
68871;BME280;55906;52.278;6.808;2022-12-29T05:01:02;99755.41;;;12.06;79.73
68871;BME280;55906;52.278;6.808;2022-12-29T05:03:29;99780.88;;;12.09;79.52
68871;BME280;55906;52.278;6.808;2022-12-29T05:05:56;99773.84;;;12.02;79.45
68871;BME280;55906;52.278;6.808;2022-12-29T05:08:23;99780.88;;;12.03;79.95
68871;BME280;55906;52.278;6.808;2022-12-29T05:10:50;99787.03;;;12.02;79.96
68871;BME280;55906;52.278;6.808;2022-12-29T05:13:17;99795.81;;;12.02;79.80
68871;BME280;55906;52.278;6.808;2022-12-29T05:15:47;99788.78;;;11.95;80.02
68871;BME280;55906;52.278;6.808;2022-12-29T05:18:15;99788.78;;;11.98;80.22
68871;BME280;55906;52.278;6.808;2022-12-29T05:20:42;99788.78;;;11.95;80.43
68871;BME280;55906;52.278;6.808;2022-12-29T05:23:08;99788.75;;;11.92;81.50
68871;BME280;55906;52.278;6.808;2022-12-29T05:25:35;99794.03;;;11.94;82.13
68871;BME280;55906;52.278;6.808;2022-12-29T05:28:02;99801.84;;;11.72;84.41
68871;BME280;55906;52.278;6.808;2022-12-29T05:30:28;99796.47;;;11.57;85.26
68871;BME280;55906;52.278;6.808;2022-12-29T05:32:55;99809.59;;;11.46;85.75
68871;BME280;55906;52.278;6.808;2022-12-29T05:35:23;99813.09;;;11.42;87.15
68871;BME280;55906;52.278;6.808;2022-12-29T05:37:50;99814.78;;;11.31;88.29
68871;BME280;55906;52.278;6.808;2022-12-29T05:40:16;99798.91;;;11.16;86.65
68871;BME280;55906;52.278;6.808;2022-12-29T05:42:43;99851.50;;;11.10;86.01
68871;BME280;55906;52.278;6.808;2022-12-29T05:45:10;99798.81;;;11.04;86.42
68871;BME280;55906;52.278;6.808;2022-12-29T05:47:36;99837.41;;;11.03;87.52
68871;BME280;55906;52.278;6.808;2022-12-29T05:50:04;99833.00;;;11.01;87.78
68871;BME280;55906;52.278;6.808;2022-12-29T05:52:32;99845.19;;;10.88;88.33
68871;BME280;55906;52.278;6.808;2022-12-29T05:54:59;99837.28;;;10.86;88.81
68871;BME280;55906;52.278;6.808;2022-12-29T05:57:25;99838.06;;;10.73;88.56
68871;BME280;55906;52.278;6.808;2022-12-29T05:59:52;99843.25;;;10.64;88.64
68871;BME280;55906;52.278;6.808;2022-12-29T06:02:18;99852.88;;;10.62;89.12
68871;BME280;55906;52.278;6.808;2022-12-29T06:04:45;99858.91;;;10.52;89.39
68871;BME280;55906;52.278;6.808;2022-12-29T06:07:11;99863.22;;;10.45;89.13
68871;BME280;55906;52.278;6.808;2022-12-29T06:09:39;99868.47;;;10.44;88.92
68871;BME280;55906;52.278;6.808;2022-12-29T06:12:06;99859.72;;;10.45;88.99
68871;BME280;55906;52.278;6.808;2022-12-29T06:14:33;99884.13;;;10.36;88.59
68871;BME280;55906;52.278;6.808;2022-12-29T06:16:59;99878.84;;;10.32;88.23
68871;BME280;55906;52.278;6.808;2022-12-29T06:19:26;99882.34;;;10.32;87.94
68871;BME280;55906;52.278;6.808;2022-12-29T06:21:53;99878.84;;;10.32;87.99
68871;BME280;55906;52.278;6.808;2022-12-29T06:24:20;99877.88;;;10.23;88.03
68871;BME280;55906;52.278;6.808;2022-12-29T06:26:48;99884.00;;;10.22;87.98
68871;BME280;55906;52.278;6.808;2022-12-29T06:29:15;99883.09;;;10.20;88.13
68871;BME280;55906;52.278;6.808;2022-12-29T06:31:42;99887.41;;;10.18;88.34
68871;BME280;55906;52.278;6.808;2022-12-29T06:34:10;99883.88;;;10.15;88.59
68871;BME280;55906;52.278;6.808;2022-12-29T06:36:38;99908.38;;;10.12;88.59
68871;BME280;55906;52.278;6.808;2022-12-29T06:39:05;99906.59;;;10.10;88.69
68871;BME280;55906;52.278;6.808;2022-12-29T06:41:31;99910.09;;;10.10;88.93
68871;BME280;55906;52.278;6.808;2022-12-29T06:43:59;99905.69;;;10.08;89.59
68871;BME280;55906;52.278;6.808;2022-12-29T06:46:26;99909.22;;;10.10;89.78
68871;BME280;55906;52.278;6.808;2022-12-29T06:48:52;99913.66;;;10.15;89.55
68871;BME280;55906;52.278;6.808;2022-12-29T06:51:19;99910.19;;;10.18;89.60
68871;BME280;55906;52.278;6.808;2022-12-29T06:53:45;99917.28;;;10.22;89.09
68871;BME280;55906;52.278;6.808;2022-12-29T06:56:12;99921.66;;;10.21;88.92
68871;BME280;55906;52.278;6.808;2022-12-29T06:58:39;99912.94;;;10.25;88.72
68871;BME280;55906;52.278;6.808;2022-12-29T07:01:07;99916.50;;;10.31;87.09
68871;BME280;55906;52.278;6.808;2022-12-29T07:03:33;99906.91;;;10.36;86.19
68871;BME280;55906;52.278;6.808;2022-12-29T07:06:00;99910.44;;;10.38;86.32
68871;BME280;55906;52.278;6.808;2022-12-29T07:08:26;99927.13;;;10.40;85.54
68871;BME280;55906;52.278;6.808;2022-12-29T07:10:53;99915.78;;;10.41;85.51
68871;BME280;55906;52.278;6.808;2022-12-29T07:13:20;99913.09;;;10.39;84.16
68871;BME280;55906;52.278;6.808;2022-12-29T07:15:46;99912.31;;;10.46;82.94
68871;BME280;55906;52.278;6.808;2022-12-29T07:18:14;99917.66;;;10.54;81.68
68871;BME280;55906;52.278;6.808;2022-12-29T07:20:41;99914.13;;;10.52;82.17
68871;BME280;55906;52.278;6.808;2022-12-29T07:23:07;99941.25;;;10.46;81.94
68871;BME280;55906;52.278;6.808;2022-12-29T07:25:34;99921.16;;;10.53;80.79
68871;BME280;55906;52.278;6.808;2022-12-29T07:28:01;99929.91;;;10.50;80.24
68871;BME280;55906;52.278;6.808;2022-12-29T07:30:28;99927.34;;;10.56;80.49
68871;BME280;55906;52.278;6.808;2022-12-29T07:32:54;99930.75;;;10.49;80.44
68871;BME280;55906;52.278;6.808;2022-12-29T07:35:22;99910.59;;;10.50;80.81
68871;BME280;55906;52.278;6.808;2022-12-29T07:37:49;99907.97;;;10.50;80.43
68871;BME280;55906;52.278;6.808;2022-12-29T07:40:16;99922.81;;;10.45;80.45
68871;BME280;55906;52.278;6.808;2022-12-29T07:42:42;99934.25;;;10.48;80.31
68871;BME280;55906;52.278;6.808;2022-12-29T07:45:09;99928.13;;;10.48;80.28
68871;BME280;55906;52.278;6.808;2022-12-29T07:47:36;99944.75;;;10.45;80.50
68871;BME280;55906;52.278;6.808;2022-12-29T07:50:04;99938.63;;;10.48;80.09
68871;BME280;55906;52.278;6.808;2022-12-29T07:52:32;99948.09;;;10.34;81.06
68871;BME280;55906;52.278;6.808;2022-12-29T07:54:58;99945.41;;;10.29;82.50
68871;BME280;55906;52.278;6.808;2022-12-29T07:57:25;99940.94;;;10.22;83.15
68871;BME280;55906;52.278;6.808;2022-12-29T07:59:52;99952.19;;;10.15;83.80
68871;BME280;55906;52.278;6.808;2022-12-29T08:02:18;99945.16;;;10.12;84.07
68871;BME280;55906;52.278;6.808;2022-12-29T08:04:45;99938.06;;;10.05;84.73
68871;BME280;55906;52.278;6.808;2022-12-29T08:07:12;99941.56;;;10.04;84.73
68871;BME280;55906;52.278;6.808;2022-12-29T08:09:40;99956.56;;;10.14;84.18
68871;BME280;55906;52.278;6.808;2022-12-29T08:12:09;99952.06;;;10.04;84.34
68871;BME280;55906;52.278;6.808;2022-12-29T08:14:36;99958.97;;;9.96;84.60
68871;BME280;55906;52.278;6.808;2022-12-29T08:17:03;99957.38;;;10.09;84.57
68871;BME280;55906;52.278;6.808;2022-12-29T08:19:30;99951.25;;;10.10;84.69
68871;BME280;55906;52.278;6.808;2022-12-29T08:21:56;99961.59;;;9.98;85.55
68871;BME280;55906;52.278;6.808;2022-12-29T08:24:23;99960.53;;;9.82;86.11
68871;BME280;55906;52.278;6.808;2022-12-29T08:26:51;99954.41;;;9.83;86.14
68871;BME280;55906;52.278;6.808;2022-12-29T08:29:17;99939.53;;;9.85;85.31
68871;BME280;55906;52.278;6.808;2022-12-29T08:31:44;99947.59;;;9.99;82.51
68871;BME280;55906;52.278;6.808;2022-12-29T08:34:11;99961.88;;;10.17;80.51
68871;BME280;55906;52.278;6.808;2022-12-29T08:36:38;99952.22;;;10.16;80.99
68871;BME280;55906;52.278;6.808;2022-12-29T08:39:04;99963.75;;;10.24;79.86
68871;BME280;55906;52.278;6.808;2022-12-29T08:41:31;99970.19;;;10.48;79.09
68871;BME280;55906;52.278;6.808;2022-12-29T08:43:59;99973.78;;;10.56;77.70
68871;BME280;55906;52.278;6.808;2022-12-29T08:46:26;99970.22;;;10.51;77.00
68871;BME280;55906;52.278;6.808;2022-12-29T08:48:53;99960.63;;;10.56;77.16
68871;BME280;55906;52.278;6.808;2022-12-29T08:51:19;99986.25;;;10.72;75.66
68871;BME280;55906;52.278;6.808;2022-12-29T08:53:46;99988.25;;;10.98;75.62
68871;BME280;55906;52.278;6.808;2022-12-29T08:56:13;99994.56;;;11.16;74.31
68871;BME280;55906;52.278;6.808;2022-12-29T08:58:39;99984.25;;;11.39;73.45
68871;BME280;55906;52.278;6.808;2022-12-29T09:01:09;99986.97;;;11.51;72.42
68871;BME280;55906;52.278;6.808;2022-12-29T09:03:36;99981.84;;;11.70;71.74
68871;BME280;55906;52.278;6.808;2022-12-29T09:06:03;99974.97;;;11.87;70.45
68871;BME280;55906;52.278;6.808;2022-12-29T09:08:30;99981.09;;;11.80;69.87
68871;BME280;55906;52.278;6.808;2022-12-29T09:11:05;99959.06;;;11.75;69.57
68871;BME280;55906;52.278;6.808;2022-12-29T09:13:33;99975.84;;;11.83;69.02
68871;BME280;55906;52.278;6.808;2022-12-29T09:15:59;99970.53;;;11.80;68.51
68871;BME280;55906;52.278;6.808;2022-12-29T09:18:28;99959.19;;;11.92;68.25
68871;BME280;55906;52.278;6.808;2022-12-29T09:20:56;99964.59;;;12.21;66.45
68871;BME280;55906;52.278;6.808;2022-12-29T09:23:24;99955.03;;;12.48;66.30
68871;BME280;55906;52.278;6.808;2022-12-29T09:25:50;99960.31;;;12.42;66.00
68871;BME280;55906;52.278;6.808;2022-12-29T09:28:17;99963.78;;;12.32;66.00
68871;BME280;55906;52.278;6.808;2022-12-29T09:30:44;99990.16;;;12.31;65.87
68871;BME280;55906;52.278;6.808;2022-12-29T09:33:11;99970.75;;;12.15;65.83
68871;BME280;55906;52.278;6.808;2022-12-29T09:35:42;99964.59;;;12.21;65.70
68871;BME280;55906;52.278;6.808;2022-12-29T09:38:09;99958.47;;;12.23;65.67
68871;BME280;55906;52.278;6.808;2022-12-29T09:40:37;99970.84;;;12.44;65.67
68871;BME280;55906;52.278;6.808;2022-12-29T09:43:25;99956.78;;;12.45;65.24
68871;BME280;55906;52.278;6.808;2022-12-29T09:46:02;99984.81;;;12.18;66.26
68871;BME280;55906;52.278;6.808;2022-12-29T09:48:36;99977.75;;;12.14;66.74
68871;BME280;55906;52.278;6.808;2022-12-29T09:51:10;99975.06;;;12.02;66.70
68871;BME280;55906;52.278;6.808;2022-12-29T09:53:40;100010.22;;;12.01;68.01
68871;BME280;55906;52.278;6.808;2022-12-29T09:56:14;99985.50;;;11.84;68.62
68871;BME280;55906;52.278;6.808;2022-12-29T09:58:47;99973.97;;;11.73;70.54
68871;BME280;55906;52.278;6.808;2022-12-29T10:01:21;99987.00;;;11.58;70.94
68871;BME280;55906;52.278;6.808;2022-12-29T10:03:52;99980.78;;;11.46;70.28
68871;BME280;55906;52.278;6.808;2022-12-29T10:06:23;99989.50;;;11.38;70.84
68871;BME280;55906;52.278;6.808;2022-12-29T10:08:57;99992.06;;;11.32;71.34
68871;BME280;55906;52.278;6.808;2022-12-29T10:11:35;99992.06;;;11.30;71.50
68871;BME280;55906;52.278;6.808;2022-12-29T10:14:19;99988.53;;;11.28;70.94
68871;BME280;55906;52.278;6.808;2022-12-29T10:16:59;99991.13;;;11.22;71.47
68871;BME280;55906;52.278;6.808;2022-12-29T10:19:45;100011.38;;;11.29;71.41
68871;BME280;55906;52.278;6.808;2022-12-29T10:22:28;99989.41;;;11.29;70.71
68871;BME280;55906;52.278;6.808;2022-12-29T10:25:00;100001.75;;;11.33;70.75
68871;BME280;55906;52.278;6.808;2022-12-29T10:27:31;100006.19;;;11.38;70.81
68871;BME280;55906;52.278;6.808;2022-12-29T10:30:01;100006.22;;;11.43;71.19
68871;BME280;55906;52.278;6.808;2022-12-29T10:32:34;99997.41;;;11.39;70.87
68871;BME280;55906;52.278;6.808;2022-12-29T10:35:06;99998.31;;;11.44;70.94
68871;BME280;55906;52.278;6.808;2022-12-29T10:37:42;100011.50;;;11.44;70.95
68871;BME280;55906;52.278;6.808;2022-12-29T10:40:16;100023.75;;;11.42;70.84
68871;BME280;55906;52.278;6.808;2022-12-29T10:42:49;100022.03;;;11.44;70.41
68871;BME280;55906;52.278;6.808;2022-12-29T10:45:19;100010.59;;;11.44;70.81
68871;BME280;55906;52.278;6.808;2022-12-29T10:47:53;99997.41;;;11.39;70.45
68871;BME280;55906;52.278;6.808;2022-12-29T10:50:22;100028.13;;;11.37;71.63
68871;BME280;55906;52.278;6.808;2022-12-29T10:52:51;100011.38;;;11.31;71.94
68871;BME280;55906;52.278;6.808;2022-12-29T10:55:21;100049.03;;;11.22;73.48
68871;BME280;55906;52.278;6.808;2022-12-29T10:57:49;100047.19;;;11.13;73.48
68871;BME280;55906;52.278;6.808;2022-12-29T11:00:18;100099.66;;;10.98;75.47
68871;BME280;55906;52.278;6.808;2022-12-29T11:03:04;100030.34;;;10.98;75.52
68871;BME280;55906;52.278;6.808;2022-12-29T11:05:37;100075.91;;;10.90;75.09
68871;BME280;55906;52.278;6.808;2022-12-29T11:08:12;100065.38;;;10.90;75.03
68871;BME280;55906;52.278;6.808;2022-12-29T11:10:42;100091.63;;;10.84;75.17
68871;BME280;55906;52.278;6.808;2022-12-29T11:13:15;100064.50;;;10.90;73.77
68871;BME280;55906;52.278;6.808;2022-12-29T11:15:43;100059.22;;;10.90;74.08
68871;BME280;55906;52.278;6.808;2022-12-29T11:18:31;100053.13;;;10.93;75.26
68871;BME280;55906;52.278;6.808;2022-12-29T11:21:00;100113.59;;;10.88;76.41
68871;BME280;55906;52.278;6.808;2022-12-29T11:23:34;100073.19;;;10.83;76.07
68871;BME280;55906;52.278;6.808;2022-12-29T11:26:13;100079.31;;;10.83;75.90
68871;BME280;55906;52.278;6.808;2022-12-29T11:28:42;100073.13;;;10.80;76.46
68871;BME280;55906;52.278;6.808;2022-12-29T11:31:10;100083.69;;;10.83;76.35
68871;BME280;55906;52.278;6.808;2022-12-29T11:33:41;100091.56;;;10.81;76.65
68871;BME280;55906;52.278;6.808;2022-12-29T11:36:11;100079.34;;;10.86;76.76
68871;BME280;55906;52.278;6.808;2022-12-29T11:38:42;100067.09;;;10.88;77.40
68871;BME280;55906;52.278;6.808;2022-12-29T11:41:13;100091.66;;;10.89;77.29
68871;BME280;55906;52.278;6.808;2022-12-29T11:43:45;100108.28;;;10.85;77.42
68871;BME280;55906;52.278;6.808;2022-12-29T11:46:14;100098.69;;;10.88;77.50
68871;BME280;55906;52.278;6.808;2022-12-29T11:48:42;100104.81;;;10.87;77.53
68871;BME280;55906;52.278;6.808;2022-12-29T11:51:10;100106.47;;;10.81;78.63
68871;BME280;55906;52.278;6.808;2022-12-29T11:53:42;100114.28;;;10.73;79.33
68871;BME280;55906;52.278;6.808;2022-12-29T11:56:12;100125.56;;;10.65;80.10
68871;BME280;55906;52.278;6.808;2022-12-29T11:58:40;100125.50;;;10.60;80.85
68871;BME280;55906;52.278;6.808;2022-12-29T12:01:12;100128.94;;;10.54;81.79
68871;BME280;55906;52.278;6.808;2022-12-29T12:03:45;100134.19;;;10.54;81.35
68871;BME280;55906;52.278;6.808;2022-12-29T12:06:16;100121.84;;;10.50;81.30
68871;BME280;55906;52.278;6.808;2022-12-29T12:08:53;100135.03;;;10.52;81.10
68871;BME280;55906;52.278;6.808;2022-12-29T12:11:22;100148.28;;;10.60;81.05
68871;BME280;55906;52.278;6.808;2022-12-29T12:13:57;100166.84;;;10.70;79.50
68871;BME280;55906;52.278;6.808;2022-12-29T12:16:29;100123.97;;;10.77;79.55
68871;BME280;55906;52.278;6.808;2022-12-29T12:19:04;100127.50;;;10.78;78.89
68871;BME280;55906;52.278;6.808;2022-12-29T12:21:38;100139.75;;;10.77;78.72
68871;BME280;55906;52.278;6.808;2022-12-29T12:24:18;100140.72;;;10.84;78.49
68871;BME280;55906;52.278;6.808;2022-12-29T12:26:55;100148.69;;;10.88;78.23
68871;BME280;55906;52.278;6.808;2022-12-29T12:29:28;100155.63;;;10.83;78.23
68871;BME280;55906;52.278;6.808;2022-12-29T12:32:01;100153.13;;;10.93;77.85
68871;BME280;55906;52.278;6.808;2022-12-29T12:34:32;100161.88;;;10.92;77.56
68871;BME280;55906;52.278;6.808;2022-12-29T12:37:41;100156.59;;;10.92;77.45
68871;BME280;55906;52.278;6.808;2022-12-29T12:40:31;100186.34;;;10.84;78.61
68871;BME280;55906;52.278;6.808;2022-12-29T12:43:10;100175.78;;;10.81;79.10
68871;BME280;55906;52.278;6.808;2022-12-29T12:45:55;100178.28;;;10.74;80.16
68871;BME280;55906;52.278;6.808;2022-12-29T12:48:50;100185.19;;;10.64;80.76
68871;BME280;55906;52.278;6.808;2022-12-29T12:51:30;100187.75;;;10.60;81.60
68871;BME280;55906;52.278;6.808;2022-12-29T12:54:14;100199.13;;;10.58;81.61
68871;BME280;55906;52.278;6.808;2022-12-29T12:57:05;100201.53;;;10.43;83.22
68871;BME280;55906;52.278;6.808;2022-12-29T12:59:41;100201.28;;;10.30;84.53
68871;BME280;55906;52.278;6.808;2022-12-29T13:02:26;100222.19;;;10.23;84.75
68871;BME280;55906;52.278;6.808;2022-12-29T13:05:10;100222.00;;;10.14;85.45
68871;BME280;55906;52.278;6.808;2022-12-29T13:07:52;100200.00;;;10.08;85.84
68871;BME280;55906;52.278;6.808;2022-12-29T13:10:29;100188.44;;;9.98;86.45
68871;BME280;55906;52.278;6.808;2022-12-29T13:16:01;100211.16;;;9.94;87.98
68871;BME280;55906;52.278;6.808;2022-12-29T13:18:37;100219.03;;;9.94;88.43
68871;BME280;55906;52.278;6.808;2022-12-29T13:21:17;100218.06;;;9.89;87.72